createdAt,value
2018-05-18T00:01:39.280Z,9.23
2018-05-18T00:04:05.204Z,9.53
2018-05-18T00:06:31.160Z,10.23
2018-05-18T00:08:57.029Z,9.63
2018-05-18T00:11:22.891Z,8.97
2018-05-18T00:13:48.908Z,10.20
2018-05-18T00:16:14.789Z,10.20
2018-05-18T00:18:40.665Z,9.87
2018-05-18T00:21:06.748Z,10.27
2018-05-18T00:23:32.656Z,10.10
2018-05-18T00:25:58.623Z,9.33
2018-05-18T00:28:24.888Z,8.97
2018-05-18T00:30:50.772Z,9.77
2018-05-18T00:33:16.683Z,9.23
2018-05-18T00:35:42.625Z,9.87
2018-05-18T00:38:08.607Z,10.77
2018-05-18T00:40:34.520Z,11.23
2018-05-18T00:43:00.473Z,10.37
2018-05-18T00:45:26.339Z,10.63
2018-05-18T00:47:52.222Z,9.90
2018-05-18T00:50:18.233Z,9.87
2018-05-18T00:52:44.118Z,10.53
2018-05-18T00:55:22.351Z,9.57
2018-05-18T00:57:48.230Z,9.20
2018-05-18T01:00:14.151Z,8.87
2018-05-18T01:02:40.555Z,10.27
2018-05-18T01:05:06.445Z,10.63
2018-05-18T01:07:32.351Z,9.03
2018-05-18T01:09:58.268Z,9.93
2018-05-18T01:12:24.160Z,10.10
2018-05-18T01:14:50.121Z,10.23
2018-05-18T01:17:16.058Z,10.33
2018-05-18T01:19:41.946Z,10.30
2018-05-18T01:22:07.811Z,9.60
2018-05-18T01:24:33.735Z,10.20
2018-05-18T01:26:59.716Z,10.17
2018-05-18T01:29:25.619Z,10.47
2018-05-18T01:31:51.820Z,9.73
2018-05-18T01:34:17.761Z,10.83
2018-05-18T01:36:43.668Z,10.17
2018-05-18T01:39:09.680Z,10.00
2018-05-18T01:41:35.565Z,10.73
2018-05-18T01:44:01.453Z,10.90
2018-05-18T01:46:27.614Z,10.60
2018-05-18T01:48:53.482Z,9.77
2018-05-18T01:51:19.445Z,10.27
2018-05-18T01:53:45.424Z,9.77
2018-05-18T01:56:11.287Z,10.03
2018-05-18T01:58:37.156Z,9.23
2018-05-18T02:01:21.315Z,10.33
2018-05-18T02:03:47.263Z,9.43
2018-05-18T02:06:14.033Z,9.67
2018-05-18T02:08:40.623Z,10.13
2018-05-18T02:11:06.498Z,11.20
2018-05-18T02:13:32.367Z,10.83
2018-05-18T02:15:58.387Z,10.23
2018-05-18T02:18:24.251Z,9.90
2018-05-18T02:20:50.130Z,9.97
2018-05-18T02:23:16.052Z,9.27
2018-05-18T02:25:41.921Z,10.57
2018-05-18T02:28:07.880Z,10.37
2018-05-18T02:30:33.787Z,11.10
2018-05-18T02:32:59.699Z,10.00
2018-05-18T02:35:25.590Z,10.03
2018-05-18T02:37:51.960Z,10.33
2018-05-18T02:40:17.875Z,9.97
2018-05-18T02:42:43.748Z,10.57
2018-05-18T02:45:09.671Z,10.00
2018-05-18T02:47:35.569Z,10.13
2018-05-18T02:50:01.481Z,10.10
2018-05-18T02:52:27.600Z,10.17
2018-05-18T02:54:53.460Z,10.13
2018-05-18T02:57:19.301Z,10.43
2018-05-18T02:59:45.221Z,10.27
2018-05-18T03:02:11.100Z,10.40
2018-05-18T03:04:37.067Z,10.23
2018-05-18T03:07:03.038Z,9.20
2018-05-18T03:09:28.942Z,9.83
2018-05-18T03:11:54.826Z,10.03
2018-05-18T03:14:20.756Z,10.10
2018-05-18T03:16:46.716Z,10.93
2018-05-18T03:19:12.585Z,11.00
2018-05-18T03:21:38.515Z,10.50
2018-05-18T03:24:04.396Z,10.67
2018-05-18T03:26:30.292Z,10.83
2018-05-18T03:28:56.326Z,11.40
2018-05-18T03:31:22.202Z,10.90
2018-05-18T03:33:48.075Z,11.37
2018-05-18T03:36:14.036Z,10.83
2018-05-18T03:38:39.892Z,11.53
2018-05-18T03:41:05.910Z,11.77
2018-05-18T03:43:31.831Z,10.33
2018-05-18T03:45:57.812Z,11.87
2018-05-18T03:48:23.679Z,10.90
2018-05-18T03:50:49.610Z,11.03
2018-05-18T03:53:15.678Z,11.67
2018-05-18T03:55:41.552Z,11.10
2018-05-18T03:58:07.470Z,10.73
2018-05-18T04:00:33.643Z,12.13
2018-05-18T04:03:12.238Z,12.37
2018-05-18T04:05:50.543Z,11.10
2018-05-18T04:08:29.020Z,11.40
2018-05-18T04:10:54.901Z,11.00
2018-05-18T04:13:20.763Z,11.07
2018-05-18T04:15:46.809Z,12.00
2018-05-18T04:18:12.732Z,11.23
2018-05-18T04:20:38.656Z,11.97
2018-05-18T04:23:05.467Z,11.47
2018-05-18T04:25:31.344Z,11.80
2018-05-18T04:27:57.549Z,11.37
2018-05-18T04:30:24.357Z,12.00
2018-05-18T04:32:51.085Z,11.63
2018-05-18T04:35:16.959Z,11.20
2018-05-18T04:37:42.889Z,11.73
2018-05-18T04:40:08.865Z,11.80
2018-05-18T04:42:35.262Z,11.83
2018-05-18T04:45:02.158Z,12.23
2018-05-18T04:47:28.042Z,12.53
2018-05-18T04:49:53.936Z,12.10
2018-05-18T04:52:19.954Z,12.40
2018-05-18T04:54:45.897Z,13.00
2018-05-18T04:57:11.844Z,11.93
2018-05-18T04:59:37.772Z,12.60
2018-05-18T05:02:04.329Z,12.17
2018-05-18T05:04:31.267Z,11.47
2018-05-18T05:06:59.260Z,12.03
2018-05-18T05:09:25.152Z,11.30
2018-05-18T05:11:51.036Z,12.37
2018-05-18T05:14:16.990Z,10.63
2018-05-18T05:16:42.897Z,10.63
2018-05-18T05:19:08.847Z,11.03
2018-05-18T05:21:34.811Z,11.03
2018-05-18T05:24:00.716Z,10.87
2018-05-18T05:26:26.672Z,11.10
2018-05-18T05:28:52.614Z,11.30
2018-05-18T05:31:18.572Z,10.60
2018-05-18T05:33:44.461Z,11.13
2018-05-18T05:36:10.376Z,11.10
2018-05-18T05:38:36.389Z,10.90
2018-05-18T05:41:02.300Z,11.03
2018-05-18T05:43:28.278Z,11.13
2018-05-18T05:45:54.152Z,11.20
2018-05-18T05:48:20.034Z,10.60
2018-05-18T05:50:46.047Z,10.60
2018-05-18T05:53:11.948Z,10.60
2018-05-18T05:55:37.907Z,10.43
2018-05-18T05:58:03.851Z,10.53
2018-05-18T06:00:29.748Z,10.63
2018-05-18T06:02:55.719Z,11.60
2018-05-18T06:05:21.648Z,11.00
2018-05-18T06:07:48.498Z,10.63
2018-05-18T06:10:14.375Z,10.17
2018-05-18T06:12:40.304Z,10.10
2018-05-18T06:15:06.243Z,10.67
2018-05-18T06:17:32.940Z,10.60
2018-05-18T06:19:58.876Z,9.60
2018-05-18T06:22:24.764Z,9.40
2018-05-18T06:24:50.654Z,9.10
2018-05-18T06:27:16.652Z,9.63
2018-05-18T06:29:42.574Z,9.50
2018-05-18T06:32:08.449Z,9.57
2018-05-18T06:34:34.519Z,9.40
2018-05-18T06:37:01.409Z,10.37
2018-05-18T06:39:27.275Z,9.87
2018-05-18T06:41:53.195Z,9.30
2018-05-18T06:44:19.068Z,9.17
2018-05-18T06:46:44.999Z,9.43
2018-05-18T06:49:10.911Z,9.20
2018-05-18T06:51:36.817Z,9.57
2018-05-18T06:54:02.720Z,9.43
2018-05-18T06:56:28.654Z,8.97
2018-05-18T06:58:54.539Z,10.00
2018-05-18T07:01:20.511Z,9.87
2018-05-18T07:03:46.491Z,9.93
2018-05-18T07:06:12.356Z,9.47
2018-05-18T07:08:38.380Z,10.23
2018-05-18T07:11:04.321Z,8.80
2018-05-18T07:13:30.253Z,9.13
2018-05-18T07:15:56.125Z,8.90
2018-05-18T07:18:22.133Z,9.10
2018-05-18T07:20:48.004Z,9.10
2018-05-18T07:23:13.915Z,10.40
2018-05-18T07:25:39.858Z,9.50
2018-05-18T07:28:05.853Z,10.67
2018-05-18T07:30:31.771Z,9.70
2018-05-18T07:32:57.709Z,9.37
2018-05-18T07:35:23.660Z,9.20
2018-05-18T07:37:49.552Z,8.80
2018-05-18T07:40:15.585Z,7.90
2018-05-18T07:42:41.463Z,8.80
2018-05-18T07:45:07.345Z,9.77
2018-05-18T07:47:33.619Z,8.77
2018-05-18T07:49:59.508Z,9.73
2018-05-18T07:52:25.447Z,9.60
2018-05-18T07:54:51.377Z,8.77
2018-05-18T07:57:17.247Z,8.23
2018-05-18T07:59:43.128Z,7.83
2018-05-18T08:02:09.051Z,8.20
2018-05-18T08:04:35.048Z,8.30
2018-05-18T08:07:00.983Z,7.97
2018-05-18T08:09:26.955Z,7.20
2018-05-18T08:11:52.847Z,7.90
2018-05-18T08:14:18.735Z,8.73
2018-05-18T08:16:44.680Z,7.70
2018-05-18T08:19:10.546Z,7.87
2018-05-18T08:21:36.526Z,8.20
2018-05-18T08:24:02.821Z,7.57
2018-05-18T08:26:28.713Z,7.47
2018-05-18T08:29:07.198Z,8.27
2018-05-18T08:31:33.167Z,6.97
2018-05-18T08:34:19.327Z,8.60
2018-05-18T08:36:45.192Z,8.13
2018-05-18T08:39:11.109Z,8.73
2018-05-18T08:41:37.039Z,8.10
2018-05-18T08:44:02.987Z,7.67
2018-05-18T08:46:28.887Z,7.37
2018-05-18T08:48:54.915Z,7.07
2018-05-18T08:51:20.784Z,7.33
2018-05-18T08:53:46.698Z,6.90
2018-05-18T08:56:12.629Z,7.10
2018-05-18T08:58:38.500Z,7.53
2018-05-18T09:01:04.424Z,7.00
2018-05-18T09:03:31.431Z,6.63
2018-05-18T09:05:57.355Z,6.77
2018-05-18T09:08:30.557Z,6.63
2018-05-18T09:10:56.443Z,6.27
2018-05-18T09:13:22.345Z,7.47
2018-05-18T09:15:48.317Z,6.60
2018-05-18T09:18:14.179Z,6.70
2018-05-18T09:20:40.063Z,6.67
2018-05-18T09:23:06.006Z,6.53
2018-05-18T09:25:31.939Z,6.53
2018-05-18T09:27:58.692Z,6.67
2018-05-18T09:30:24.607Z,6.17
2018-05-18T09:32:50.589Z,5.97
2018-05-18T09:35:16.508Z,6.00
2018-05-18T09:37:42.432Z,6.80
2018-05-18T09:40:08.349Z,5.73
2018-05-18T09:42:37.505Z,5.70
2018-05-18T09:45:04.461Z,5.57
2018-05-18T09:47:30.747Z,5.70
2018-05-18T09:49:56.648Z,5.87
2018-05-18T09:52:22.588Z,5.60
2018-05-18T09:54:48.597Z,5.23
2018-05-18T09:57:14.477Z,5.87
2018-05-18T09:59:40.425Z,5.47
2018-05-18T10:02:11.749Z,5.40
2018-05-18T10:04:37.639Z,5.17
2018-05-18T10:07:03.696Z,5.70
2018-05-18T10:09:29.583Z,4.93
2018-05-18T10:11:55.464Z,5.50
2018-05-18T10:14:21.379Z,5.50
2018-05-18T10:16:47.277Z,5.33
2018-05-18T10:19:13.162Z,6.37
2018-05-18T10:21:39.147Z,5.60
2018-05-18T10:24:05.068Z,6.20
2018-05-18T10:26:31.020Z,5.63
2018-05-18T10:28:56.959Z,5.37
2018-05-18T10:31:22.819Z,6.30
2018-05-18T10:33:48.697Z,6.50
2018-05-18T10:36:14.704Z,6.47
2018-05-18T10:38:40.619Z,6.63
2018-05-18T10:41:06.567Z,6.43
2018-05-18T10:43:32.587Z,6.53
2018-05-18T10:45:58.479Z,6.47
2018-05-18T10:48:24.476Z,5.83
2018-05-18T10:50:50.428Z,6.57
2018-05-18T10:53:16.303Z,6.13
2018-05-18T10:55:42.155Z,6.87
2018-05-18T10:58:08.107Z,6.10
2018-05-18T11:00:34.165Z,6.40
2018-05-18T11:03:05.507Z,6.13
2018-05-18T11:05:31.509Z,6.53
2018-05-18T11:07:57.404Z,6.37
2018-05-18T11:10:23.277Z,6.77
2018-05-18T11:12:49.300Z,6.20
2018-05-18T11:15:15.168Z,5.93
2018-05-18T11:17:42.112Z,6.63
2018-05-18T11:20:08.140Z,6.87
2018-05-18T11:22:34.001Z,7.10
2018-05-18T11:25:01.348Z,7.10
2018-05-18T11:27:27.319Z,7.67
2018-05-18T11:29:53.211Z,7.03
2018-05-18T11:32:20.208Z,7.10
2018-05-18T11:34:46.137Z,7.33
2018-05-18T11:37:12.012Z,6.43
2018-05-18T11:39:37.901Z,7.03
2018-05-18T11:42:03.874Z,7.27
2018-05-18T11:44:29.790Z,6.83
2018-05-18T11:46:55.667Z,7.10
2018-05-18T11:49:21.593Z,6.80
2018-05-18T11:51:47.513Z,7.70
2018-05-18T11:54:13.402Z,6.20
2018-05-18T11:56:39.339Z,7.43
2018-05-18T11:59:05.228Z,6.70
2018-05-18T12:01:39.719Z,7.10
2018-05-18T12:04:05.704Z,7.37
2018-05-18T12:06:31.596Z,7.10
2018-05-18T12:08:57.547Z,6.67
2018-05-18T12:11:23.431Z,7.40
2018-05-18T12:13:49.300Z,6.20
2018-05-18T12:16:15.319Z,6.77
2018-05-18T12:18:41.195Z,7.00
2018-05-18T12:21:07.072Z,8.00
2018-05-18T12:23:33.099Z,7.60
2018-05-18T12:25:58.984Z,18.90
2018-05-18T12:28:25.848Z,7.57
2018-05-18T12:30:51.823Z,6.53
2018-05-18T12:33:17.704Z,7.13
2018-05-18T12:35:43.598Z,7.20
2018-05-18T12:38:09.651Z,8.03
2018-05-18T12:40:35.637Z,7.20
2018-05-18T12:43:01.549Z,8.00
2018-05-18T12:45:27.501Z,8.40
2018-05-18T12:47:53.382Z,7.83
2018-05-18T12:50:19.261Z,7.80
2018-05-18T12:52:45.211Z,8.70
2018-05-18T12:55:11.109Z,10.33
2018-05-18T12:57:37.012Z,8.77
2018-05-18T13:00:03.036Z,7.83
2018-05-18T13:02:28.917Z,8.97
2018-05-18T13:04:54.805Z,8.73
2018-05-18T13:07:20.787Z,8.77
2018-05-18T13:09:46.740Z,9.67
2018-05-18T13:12:12.632Z,9.37
2018-05-18T13:14:38.572Z,9.80
2018-05-18T13:17:04.450Z,10.53
2018-05-18T13:19:30.419Z,10.70
2018-05-18T13:21:56.352Z,9.90
2018-05-18T13:24:28.053Z,11.40
2018-05-18T13:26:54.844Z,9.67
2018-05-18T13:29:20.916Z,10.37
2018-05-18T13:31:46.804Z,9.77
2018-05-18T13:34:12.713Z,10.43
2018-05-18T13:36:38.757Z,11.17
2018-05-18T13:39:04.659Z,9.90
2018-05-18T13:41:30.568Z,10.27
2018-05-18T13:43:56.611Z,11.13
2018-05-18T13:46:22.492Z,11.27
2018-05-18T13:48:48.478Z,11.20
2018-05-18T13:51:14.400Z,12.13
2018-05-18T13:53:40.273Z,12.90
2018-05-18T13:56:06.168Z,11.70
2018-05-18T13:58:32.328Z,11.63
2018-05-18T14:00:58.302Z,11.87
2018-05-18T14:03:24.163Z,11.47
2018-05-18T14:05:50.131Z,10.63
2018-05-18T14:08:16.014Z,12.03
2018-05-18T14:10:41.887Z,11.53
2018-05-18T14:13:07.920Z,11.67
2018-05-18T14:15:33.836Z,11.27
2018-05-18T14:17:59.821Z,11.23
2018-05-18T14:20:26.193Z,12.07
2018-05-18T14:22:52.111Z,10.80
2018-05-18T14:25:18.094Z,10.53
2018-05-18T14:27:44.698Z,11.10
2018-05-18T14:30:10.624Z,11.30
2018-05-18T14:32:36.575Z,10.23
2018-05-18T14:35:03.210Z,11.50
2018-05-18T14:37:29.153Z,10.90
2018-05-18T14:39:55.044Z,10.47
2018-05-18T14:42:20.962Z,11.00
2018-05-18T14:44:46.849Z,11.70
2018-05-18T14:47:12.749Z,12.17
2018-05-18T14:49:39.029Z,11.77
2018-05-18T14:52:04.948Z,11.53
2018-05-18T14:54:30.897Z,11.13
2018-05-18T14:56:56.852Z,11.47
2018-05-18T14:59:22.733Z,10.60
2018-05-18T15:01:48.604Z,10.87
2018-05-18T15:04:14.531Z,11.33
2018-05-18T15:06:40.426Z,10.67
2018-05-18T15:09:06.368Z,10.47
2018-05-18T15:11:32.344Z,10.40
2018-05-18T15:13:58.364Z,10.70
2018-05-18T15:16:24.315Z,9.87
2018-05-18T15:18:50.189Z,10.80
2018-05-18T15:21:16.060Z,10.03
2018-05-18T15:23:41.954Z,11.73
2018-05-18T15:26:07.899Z,12.00
2018-05-18T15:28:41.480Z,10.73
2018-05-18T15:31:07.328Z,10.40
2018-05-18T15:33:33.360Z,11.40
2018-05-18T15:36:00.286Z,11.27
2018-05-18T15:38:26.188Z,10.57
2018-05-18T15:40:52.132Z,10.97
2018-05-18T15:43:18.038Z,10.40
2018-05-18T15:45:43.931Z,11.10
2018-05-18T15:48:09.864Z,11.03
2018-05-18T15:50:35.745Z,11.03
2018-05-18T15:53:01.645Z,10.23
2018-05-18T15:55:27.575Z,11.60
2018-05-18T15:57:53.503Z,10.90
2018-05-18T16:00:19.385Z,10.80
2018-05-18T16:02:45.331Z,10.70
2018-05-18T16:05:11.239Z,10.93
2018-05-18T16:07:37.133Z,10.20
2018-05-18T16:10:03.073Z,10.90
2018-05-18T16:12:28.967Z,11.20
2018-05-18T16:14:54.839Z,10.40
2018-05-18T16:17:20.832Z,10.73
2018-05-18T16:20:00.521Z,10.73
2018-05-18T16:22:26.735Z,11.07
2018-05-18T16:24:52.607Z,10.73
2018-05-18T16:27:18.483Z,11.40
2018-05-18T16:29:44.527Z,11.20
2018-05-18T16:32:13.876Z,11.20
2018-05-18T16:34:39.768Z,11.63
2018-05-18T16:37:05.722Z,12.07
2018-05-18T16:39:31.623Z,11.77
2018-05-18T16:41:57.574Z,11.77
2018-05-18T16:44:23.524Z,11.43
2018-05-18T16:46:49.401Z,12.17
2018-05-18T16:49:15.332Z,12.27
2018-05-18T16:51:41.238Z,13.10
2018-05-18T16:54:07.194Z,13.20
2018-05-18T16:56:33.075Z,12.93
2018-05-18T16:58:58.997Z,12.77
2018-05-18T17:01:24.960Z,11.97
2018-05-18T17:03:50.843Z,13.03
2018-05-18T17:06:16.855Z,12.27
2018-05-18T17:08:42.755Z,12.97
2018-05-18T17:11:08.680Z,13.13
2018-05-18T17:13:34.673Z,13.27
2018-05-18T17:16:00.577Z,14.27
2018-05-18T17:18:26.531Z,13.90
2018-05-18T17:20:52.459Z,14.67
2018-05-18T17:23:18.328Z,13.90
2018-05-18T17:25:44.251Z,14.70
2018-05-18T17:28:10.183Z,14.37
2018-05-18T17:30:36.251Z,14.87
2018-05-18T17:33:02.203Z,15.10
2018-05-18T17:35:28.069Z,14.90
2018-05-18T17:37:54.033Z,14.70
2018-05-18T17:40:19.929Z,15.60
2018-05-18T17:42:45.944Z,14.80
2018-05-18T17:45:11.835Z,13.37
2018-05-18T17:47:37.724Z,14.10
2018-05-18T17:50:03.741Z,14.07
2018-05-18T17:52:29.620Z,14.23
2018-05-18T17:54:55.584Z,13.87
2018-05-18T17:57:21.821Z,13.40
2018-05-18T17:59:47.708Z,14.60
2018-05-18T18:02:13.645Z,14.17
2018-05-18T18:04:39.588Z,13.00
2018-05-18T18:07:05.547Z,14.43
2018-05-18T18:09:31.446Z,13.73
2018-05-18T18:11:57.380Z,13.20
2018-05-18T18:14:23.335Z,13.73
2018-05-18T18:16:49.199Z,12.33
2018-05-18T18:19:16.238Z,13.80
2018-05-18T18:21:42.121Z,13.37
2018-05-18T18:24:07.993Z,14.20
2018-05-18T18:26:34.465Z,13.50
2018-05-18T18:29:01.245Z,14.37
2018-05-18T18:31:27.226Z,13.73
2018-05-18T18:33:53.142Z,13.20
2018-05-18T18:36:19.095Z,13.20
2018-05-18T18:38:44.953Z,13.23
2018-05-18T18:41:10.868Z,13.47
2018-05-18T18:43:36.845Z,12.77
2018-05-18T18:46:02.803Z,12.17
2018-05-18T18:48:28.735Z,13.27
2018-05-18T18:50:54.720Z,13.33
2018-05-18T18:53:20.616Z,13.27
2018-05-18T18:55:47.077Z,13.33
2018-05-18T18:58:12.961Z,13.10
2018-05-18T19:00:38.839Z,12.93
2018-05-18T19:03:05.213Z,13.43
2018-05-18T19:05:31.197Z,13.03
2018-05-18T19:07:57.216Z,13.23
2018-05-18T19:10:23.119Z,13.07
2018-05-18T19:12:48.991Z,12.57
2018-05-18T19:15:14.931Z,14.00
2018-05-18T19:17:40.939Z,11.57
2018-05-18T19:20:06.916Z,11.83
2018-05-18T19:22:32.979Z,12.07
2018-05-18T19:24:58.909Z,12.63
2018-05-18T19:27:24.900Z,12.10
2018-05-18T19:29:50.842Z,12.27
2018-05-18T19:32:16.816Z,12.10
2018-05-18T19:34:42.690Z,12.57
2018-05-18T19:37:08.567Z,12.03
2018-05-18T19:39:34.848Z,12.33
2018-05-18T19:42:00.750Z,13.03
2018-05-18T19:44:26.708Z,12.63
2018-05-18T19:46:52.656Z,12.43
2018-05-18T19:49:18.545Z,12.60
2018-05-18T19:51:44.516Z,12.57
2018-05-18T19:54:10.434Z,12.97
2018-05-18T19:56:36.411Z,13.10
2018-05-18T19:59:02.328Z,13.27
2018-05-18T20:01:28.269Z,12.50
2018-05-18T20:03:54.212Z,11.90
2018-05-18T20:06:20.096Z,13.10
2018-05-18T20:08:46.960Z,13.47
2018-05-18T20:11:12.843Z,12.93
2018-05-18T20:13:38.722Z,13.17
2018-05-18T20:16:05.708Z,14.17
2018-05-18T20:18:31.599Z,13.77
2018-05-18T20:20:57.900Z,13.23
2018-05-18T20:23:23.869Z,14.17
2018-05-18T20:25:49.736Z,14.03
2018-05-18T20:28:15.651Z,13.47
2018-05-18T20:30:41.559Z,14.27
2018-05-18T20:33:07.516Z,14.07
2018-05-18T20:35:33.380Z,13.00
2018-05-18T20:38:00.177Z,13.87
2018-05-18T20:40:26.101Z,14.13
2018-05-18T20:42:51.983Z,13.07
2018-05-18T20:45:17.989Z,13.90
2018-05-18T20:47:43.871Z,13.63
2018-05-18T20:50:10.565Z,13.50
2018-05-18T20:52:36.555Z,14.33
2018-05-18T20:55:02.459Z,14.83
2018-05-18T20:57:28.411Z,14.50
2018-05-18T20:59:54.651Z,14.60
2018-05-18T21:02:20.581Z,14.80
2018-05-18T21:04:46.520Z,15.30
2018-05-18T21:07:12.448Z,15.57
2018-05-18T21:09:38.412Z,17.20
2018-05-18T21:12:04.347Z,15.80
2018-05-18T21:14:30.288Z,15.63
2018-05-18T21:16:56.230Z,17.37
2018-05-18T21:19:22.204Z,15.33
2018-05-18T21:21:48.218Z,16.33
2018-05-18T21:24:14.076Z,17.47
2018-05-18T21:26:40.015Z,17.57
2018-05-18T21:29:05.995Z,18.83
2018-05-18T21:31:31.883Z,17.93
2018-05-18T21:33:58.795Z,17.27
2018-05-18T21:36:25.024Z,17.80
2018-05-18T21:38:50.928Z,17.37
2018-05-18T21:41:16.847Z,18.30
2018-05-18T21:43:42.783Z,17.40
2018-05-18T21:46:08.790Z,18.70
2018-05-18T21:48:34.857Z,18.33
2018-05-18T21:51:01.233Z,18.90
2018-05-18T21:53:27.178Z,18.73
2018-05-18T21:55:53.075Z,18.93
2018-05-18T21:58:19.008Z,19.57
2018-05-18T22:00:44.958Z,19.27
2018-05-18T22:03:10.836Z,20.40
2018-05-18T22:05:37.138Z,19.60
2018-05-18T22:08:03.054Z,21.17
2018-05-18T22:10:28.940Z,20.33
2018-05-18T22:12:54.865Z,20.27
2018-05-18T22:15:21.295Z,21.33
2018-05-18T22:17:47.163Z,20.30
2018-05-18T22:20:13.131Z,21.33
2018-05-18T22:22:39.054Z,19.43
2018-05-18T22:25:05.445Z,20.87
2018-05-18T22:27:31.437Z,20.40
2018-05-18T22:29:57.320Z,21.17
2018-05-18T22:32:23.210Z,20.50
2018-05-18T22:34:49.577Z,21.17
2018-05-18T22:37:15.540Z,20.93
2018-05-18T22:39:41.409Z,21.00
2018-05-18T22:42:07.332Z,21.27
2018-05-18T22:44:33.222Z,22.73
2018-05-18T22:46:59.305Z,20.30
2018-05-18T22:49:25.330Z,21.00
2018-05-18T22:51:51.219Z,19.50
2018-05-18T22:54:17.103Z,21.67
2018-05-18T22:56:43.048Z,20.40
2018-05-18T22:59:08.947Z,20.93
2018-05-18T23:01:35.747Z,20.50
2018-05-18T23:04:01.967Z,21.70
2018-05-18T23:06:27.885Z,21.87
2018-05-18T23:08:53.770Z,21.40
2018-05-18T23:11:19.709Z,21.50
2018-05-18T23:13:45.729Z,22.07
2018-05-18T23:16:11.647Z,21.57
2018-05-18T23:18:37.583Z,22.40
2018-05-18T23:21:03.486Z,22.20
2018-05-18T23:23:29.351Z,22.50
2018-05-18T23:25:55.383Z,22.73
2018-05-18T23:28:21.255Z,20.73
2018-05-18T23:30:47.135Z,21.40
2018-05-18T23:33:13.484Z,21.67
2018-05-18T23:35:39.363Z,21.73
2018-05-18T23:38:05.349Z,22.17
2018-05-18T23:40:31.426Z,20.77
2018-05-18T23:42:57.329Z,21.43
2018-05-18T23:45:23.212Z,20.63
2018-05-18T23:47:49.160Z,22.33
2018-05-18T23:50:15.152Z,21.33
2018-05-18T23:52:41.049Z,21.03
2018-05-18T23:55:06.973Z,21.37
2018-05-18T23:57:32.848Z,20.30
2018-05-18T23:59:58.754Z,20.93
